createdAt,value
2023-02-12T00:00:10.798Z,0
2023-02-12T00:03:07.813Z,0
2023-02-12T00:06:07.881Z,0
2023-02-12T00:09:07.854Z,0
2023-02-12T00:12:07.816Z,0
2023-02-12T00:15:07.747Z,0
2023-02-12T00:18:07.851Z,0
2023-02-12T00:21:07.876Z,0
2023-02-12T00:24:07.832Z,0
2023-02-12T00:27:07.902Z,0
2023-02-12T00:30:07.812Z,0
2023-02-12T00:33:07.813Z,0
2023-02-12T00:36:08.102Z,0
2023-02-12T00:39:07.770Z,0
2023-02-12T00:42:07.847Z,0
2023-02-12T00:45:07.835Z,0
2023-02-12T00:48:07.814Z,0
2023-02-12T00:51:07.824Z,0
2023-02-12T00:54:07.766Z,0
2023-02-12T00:57:07.880Z,0
2023-02-12T01:00:08.001Z,0
2023-02-12T01:03:08.228Z,0
2023-02-12T01:06:07.875Z,0
2023-02-12T01:09:07.893Z,0
2023-02-12T01:12:07.832Z,0
2023-02-12T01:15:07.879Z,0
2023-02-12T01:18:07.891Z,0
2023-02-12T01:21:08.185Z,0
2023-02-12T01:24:40.588Z,0
2023-02-12T01:27:10.391Z,0
2023-02-12T01:30:08.874Z,0
2023-02-12T01:33:09.617Z,0
2023-02-12T01:36:07.961Z,0
2023-02-12T01:39:08.084Z,0
2023-02-12T01:42:08.683Z,0
2023-02-12T01:45:07.906Z,0
2023-02-12T01:48:07.882Z,0
2023-02-12T01:51:07.813Z,0
2023-02-12T01:54:08.009Z,0
2023-02-12T01:57:08.103Z,0
2023-02-12T02:00:07.965Z,0
2023-02-12T02:03:08.344Z,0
2023-02-12T02:06:07.866Z,0
2023-02-12T02:09:08.362Z,0
2023-02-12T02:12:08.044Z,0
2023-02-12T02:15:08.134Z,0
2023-02-12T02:18:08.027Z,0
2023-02-12T02:21:07.893Z,0
2023-02-12T02:24:07.950Z,0
2023-02-12T02:27:08.006Z,0
2023-02-12T02:30:08.298Z,0
2023-02-12T02:33:07.863Z,0
2023-02-12T02:36:07.952Z,0
2023-02-12T02:39:07.981Z,0
2023-02-12T02:42:07.892Z,0
2023-02-12T02:45:07.971Z,0
2023-02-12T02:48:08.229Z,0
2023-02-12T02:51:07.840Z,0
2023-02-12T02:54:07.869Z,0
2023-02-12T02:57:07.877Z,0
2023-02-12T03:00:07.816Z,0
2023-02-12T03:03:08.111Z,0
2023-02-12T03:06:07.817Z,0
2023-02-12T03:09:08.224Z,0
2023-02-12T03:12:07.911Z,0
2023-02-12T03:15:07.886Z,0
2023-02-12T03:18:07.969Z,0
2023-02-12T03:21:08.247Z,0
2023-02-12T03:24:08.089Z,0
2023-02-12T03:27:08.004Z,0
2023-02-12T03:30:07.864Z,0
2023-02-12T03:33:07.915Z,0
2023-02-12T03:36:07.881Z,0
2023-02-12T03:39:07.989Z,0
2023-02-12T03:42:07.936Z,0
2023-02-12T03:45:07.967Z,0
2023-02-12T03:48:07.815Z,0
2023-02-12T03:51:07.963Z,0
2023-02-12T03:54:07.846Z,0
2023-02-12T03:57:07.929Z,0
2023-02-12T04:00:08.009Z,0
2023-02-12T04:03:07.842Z,0
2023-02-12T04:06:08.029Z,0
2023-02-12T04:09:08.399Z,0
2023-02-12T04:12:07.945Z,0
2023-02-12T04:15:08.522Z,0
2023-02-12T04:18:08.228Z,0
2023-02-12T04:21:07.946Z,0
2023-02-12T04:24:07.803Z,0
2023-02-12T04:27:07.909Z,0
2023-02-12T04:30:07.981Z,0
2023-02-12T04:33:08.042Z,0
2023-02-12T04:36:07.835Z,0
2023-02-12T04:39:07.923Z,0
2023-02-12T04:42:07.948Z,0
2023-02-12T04:45:08.242Z,0
2023-02-12T04:48:08.005Z,0
2023-02-12T04:51:08.050Z,0
2023-02-12T04:54:10.686Z,0
2023-02-12T04:57:08.522Z,0
2023-02-12T05:00:12.821Z,0
2023-02-12T05:03:09.566Z,0
2023-02-12T05:06:11.919Z,0
2023-02-12T05:09:12.918Z,0
2023-02-12T05:12:08.747Z,0
2023-02-12T05:15:09.812Z,0
2023-02-12T05:18:07.872Z,0
2023-02-12T05:21:08.000Z,0
2023-02-12T05:24:07.859Z,0
2023-02-12T05:27:07.801Z,0
2023-02-12T05:30:07.845Z,0
2023-02-12T05:33:07.809Z,0
2023-02-12T05:36:07.822Z,0
2023-02-12T05:39:07.820Z,0
2023-02-12T05:42:07.881Z,0
2023-02-12T05:45:07.846Z,0
2023-02-12T05:48:07.806Z,0
2023-02-12T05:51:07.832Z,0
2023-02-12T05:54:07.885Z,0
2023-02-12T05:57:07.859Z,0
2023-02-12T06:00:07.797Z,0
2023-02-12T06:03:07.747Z,0
2023-02-12T06:06:07.853Z,0
2023-02-12T06:09:07.807Z,3
2023-02-12T06:12:07.850Z,3
2023-02-12T06:15:07.871Z,7
2023-02-12T06:18:07.836Z,10
2023-02-12T06:21:07.821Z,17
2023-02-12T06:24:07.817Z,27
2023-02-12T06:27:07.900Z,40
2023-02-12T06:30:07.777Z,63
2023-02-12T06:33:07.782Z,100
2023-02-12T06:36:07.874Z,133
2023-02-12T06:39:08.772Z,193
2023-02-12T06:42:07.895Z,280
2023-02-12T06:45:07.917Z,390
2023-02-12T06:48:07.951Z,323
2023-02-12T06:51:07.980Z,270
2023-02-12T06:54:07.898Z,390
2023-02-12T06:57:08.000Z,497
2023-02-12T07:00:08.016Z,653
2023-02-12T07:03:07.954Z,727
2023-02-12T07:06:07.904Z,747
2023-02-12T07:09:07.936Z,1057
2023-02-12T07:12:07.967Z,1263
2023-02-12T07:15:07.884Z,1293
2023-02-12T07:18:07.917Z,1697
2023-02-12T07:21:07.784Z,2197
2023-02-12T07:24:07.993Z,2450
2023-02-12T07:27:07.953Z,1893
2023-02-12T07:30:08.033Z,1820
2023-02-12T07:33:07.764Z,1493
2023-02-12T07:36:07.929Z,1580
2023-02-12T07:39:07.933Z,1667
2023-02-12T07:42:07.986Z,1620
2023-02-12T07:45:08.017Z,1810
2023-02-12T07:48:08.065Z,1633
2023-02-12T07:51:07.968Z,1960
2023-02-12T07:54:07.953Z,2273
2023-02-12T07:57:08.097Z,3033
2023-02-12T08:00:08.488Z,4180
2023-02-12T08:03:08.080Z,4753
2023-02-12T08:06:08.016Z,5467
2023-02-12T08:09:07.999Z,5370
2023-02-12T08:12:08.145Z,5327
2023-02-12T08:15:07.879Z,4413
2023-02-12T08:18:07.936Z,2917
2023-02-12T08:21:08.005Z,2847
2023-02-12T08:24:07.898Z,4663
2023-02-12T08:27:07.941Z,4967
2023-02-12T08:30:08.004Z,3580
2023-02-12T08:33:07.872Z,3280
2023-02-12T08:36:08.879Z,3320
2023-02-12T08:39:07.984Z,2573
2023-02-12T08:42:08.005Z,2333
2023-02-12T08:45:07.984Z,4297
2023-02-12T08:48:08.010Z,3960
2023-02-12T08:51:08.003Z,4407
2023-02-12T08:54:08.122Z,4787
2023-02-12T08:57:08.045Z,4827
2023-02-12T09:00:08.036Z,5050
2023-02-12T09:03:07.984Z,5000
2023-02-12T09:06:08.079Z,4903
2023-02-12T09:09:07.913Z,6673
2023-02-12T09:12:07.985Z,6347
2023-02-12T09:15:08.065Z,6317
2023-02-12T09:18:07.947Z,6757
2023-02-12T09:21:07.920Z,5930
2023-02-12T09:24:07.901Z,4883
2023-02-12T09:27:07.829Z,4057
2023-02-12T09:30:08.191Z,3150
2023-02-12T09:33:07.991Z,4477
2023-02-12T09:36:07.954Z,6363
2023-02-12T09:39:08.060Z,6113
2023-02-12T09:42:07.944Z,5113
2023-02-12T09:45:07.937Z,7563
2023-02-12T09:48:07.906Z,6950
2023-02-12T09:51:07.914Z,6170
2023-02-12T09:54:08.073Z,5867
2023-02-12T09:57:07.853Z,6107
2023-02-12T10:00:08.120Z,6657
2023-02-12T10:03:12.410Z,6573
2023-02-12T10:06:07.919Z,5647
2023-02-12T10:09:08.216Z,5507
2023-02-12T10:12:07.911Z,5510
2023-02-12T10:15:08.024Z,6627
2023-02-12T10:18:07.902Z,7093
2023-02-12T10:21:07.929Z,6110
2023-02-12T10:24:08.070Z,7097
2023-02-12T10:27:07.948Z,7313
2023-02-12T10:30:08.091Z,7393
2023-02-12T10:33:07.846Z,7263
2023-02-12T10:36:08.001Z,7207
2023-02-12T10:39:07.940Z,7080
2023-02-12T10:42:07.971Z,6040
2023-02-12T10:45:07.866Z,5397
2023-02-12T10:48:07.948Z,5733
2023-02-12T10:51:07.958Z,5660
2023-02-12T10:54:09.825Z,6083
2023-02-12T10:57:07.844Z,6273
2023-02-12T11:00:08.056Z,7050
2023-02-12T11:03:07.894Z,7870
2023-02-12T11:06:08.012Z,6287
2023-02-12T11:09:08.057Z,6693
2023-02-12T11:12:07.987Z,10240
2023-02-12T11:15:08.078Z,11217
2023-02-12T11:18:11.207Z,10627
2023-02-12T11:21:07.910Z,11010
2023-02-12T11:24:09.531Z,10957
2023-02-12T11:27:07.927Z,10563
2023-02-12T11:30:07.908Z,9550
2023-02-12T11:33:07.922Z,8830
2023-02-12T11:39:07.913Z,8677
2023-02-12T11:42:08.014Z,8413
2023-02-12T11:45:07.787Z,7743
2023-02-12T11:48:08.073Z,7257
2023-02-12T11:51:07.808Z,8167
2023-02-12T11:54:07.822Z,6793
2023-02-12T11:57:07.795Z,6663
2023-02-12T12:00:08.123Z,6637
2023-02-12T12:03:07.977Z,6913
2023-02-12T12:06:07.768Z,7640
2023-02-12T12:09:07.710Z,7883
2023-02-12T12:12:07.746Z,7623
2023-02-12T12:15:07.873Z,6397
2023-02-12T12:18:07.776Z,5910
2023-02-12T12:21:07.970Z,5517
2023-02-12T12:24:07.833Z,6413
2023-02-12T12:27:07.806Z,7333
2023-02-12T12:30:09.752Z,7393
2023-02-12T12:33:07.818Z,6903
2023-02-12T12:36:07.646Z,7457
2023-02-12T12:39:07.745Z,8800
2023-02-12T12:42:07.904Z,9007
2023-02-12T12:45:07.869Z,7573
2023-02-12T12:48:07.742Z,7163
2023-02-12T12:51:08.059Z,7837
2023-02-12T12:54:07.912Z,8567
2023-02-12T12:57:07.977Z,9863
2023-02-12T13:00:08.000Z,11420
2023-02-12T13:03:07.900Z,13027
2023-02-12T13:06:07.848Z,11943
2023-02-12T13:09:07.886Z,14700
2023-02-12T13:12:07.820Z,14703
2023-02-12T13:15:08.055Z,14963
2023-02-12T13:18:07.759Z,16053
2023-02-12T13:21:07.801Z,16560
2023-02-12T13:24:07.838Z,15383
2023-02-12T13:27:07.933Z,14460
2023-02-12T13:30:08.034Z,14720
2023-02-12T13:33:07.930Z,16367
2023-02-12T13:36:07.684Z,15207
2023-02-12T13:39:07.848Z,14383
2023-02-12T13:42:07.946Z,13437
2023-02-12T13:45:07.891Z,12973
2023-02-12T13:48:08.015Z,12367
2023-02-12T13:51:23.634Z,12603
2023-02-12T13:54:07.878Z,12170
2023-02-12T13:57:07.918Z,11257
2023-02-12T14:00:08.056Z,11400
2023-02-12T14:03:07.738Z,10823
2023-02-12T14:06:07.783Z,9417
2023-02-12T14:09:07.850Z,8747
2023-02-12T14:12:07.831Z,8410
2023-02-12T14:15:08.036Z,6160
2023-02-12T14:18:07.825Z,5190
2023-02-12T14:21:07.703Z,4783
2023-02-12T14:24:07.974Z,4213
2023-02-12T14:27:07.804Z,3220
2023-02-12T14:30:07.899Z,2563
2023-02-12T14:33:08.180Z,2707
2023-02-12T14:36:07.743Z,2910
2023-02-12T14:39:07.837Z,2647
2023-02-12T14:42:07.800Z,2620
2023-02-12T14:45:07.896Z,2410
2023-02-12T14:48:07.763Z,2517
2023-02-12T14:51:07.995Z,3080
2023-02-12T14:54:07.842Z,3127
2023-02-12T14:57:07.701Z,2827
2023-02-12T15:00:07.940Z,2440
2023-02-12T15:03:07.801Z,2833
2023-02-12T15:06:07.848Z,3010
2023-02-12T15:09:08.008Z,2800
2023-02-12T15:12:07.771Z,3013
2023-02-12T15:15:07.837Z,3783
2023-02-12T15:18:07.829Z,3953
2023-02-12T15:21:07.952Z,3710
2023-02-12T15:24:07.822Z,3373
2023-02-12T15:27:08.093Z,3130
2023-02-12T15:30:14.847Z,3093
2023-02-12T15:33:07.818Z,3093
2023-02-12T15:36:07.731Z,3110
2023-02-12T15:39:08.230Z,2947
2023-02-12T15:42:07.860Z,2770
2023-02-12T15:45:08.377Z,2383
2023-02-12T15:48:07.778Z,2047
2023-02-12T15:51:07.831Z,2027
2023-02-12T15:54:07.859Z,1980
2023-02-12T15:57:07.762Z,1657
2023-02-12T16:00:08.155Z,1610
2023-02-12T16:03:07.919Z,1563
2023-02-12T16:06:07.837Z,1497
2023-02-12T16:09:07.769Z,1043
2023-02-12T16:12:08.169Z,703
2023-02-12T16:15:07.920Z,627
2023-02-12T16:18:07.743Z,443
2023-02-12T16:21:08.057Z,330
2023-02-12T16:24:08.011Z,203
2023-02-12T16:27:07.779Z,163
2023-02-12T16:30:07.711Z,140
2023-02-12T16:33:07.636Z,107
2023-02-12T16:36:07.622Z,60
2023-02-12T16:39:07.807Z,33
2023-02-12T16:42:07.649Z,23
2023-02-12T16:45:07.787Z,13
2023-02-12T16:48:07.600Z,7
2023-02-12T16:51:07.829Z,3
2023-02-12T16:54:07.693Z,3
2023-02-12T16:57:07.770Z,0
2023-02-12T17:00:07.712Z,0
2023-02-12T17:03:07.970Z,0
2023-02-12T17:06:07.707Z,0
2023-02-12T17:09:07.722Z,0
2023-02-12T17:12:07.618Z,0
2023-02-12T17:15:07.654Z,0
2023-02-12T17:18:07.647Z,0
2023-02-12T17:21:07.693Z,0
2023-02-12T17:24:07.669Z,0
2023-02-12T17:27:07.685Z,0
2023-02-12T17:30:07.651Z,0
2023-02-12T17:33:07.803Z,0
2023-02-12T17:36:07.681Z,0
2023-02-12T17:39:07.708Z,0
2023-02-12T17:42:07.630Z,0
2023-02-12T17:45:07.657Z,0
2023-02-12T17:48:07.558Z,0
2023-02-12T17:51:07.755Z,0
2023-02-12T17:54:07.693Z,0
2023-02-12T17:57:07.976Z,0
2023-02-12T18:00:07.715Z,0
2023-02-12T18:03:07.841Z,0
2023-02-12T18:06:07.607Z,0
2023-02-12T18:09:07.684Z,0
2023-02-12T18:12:07.599Z,0
2023-02-12T18:15:07.940Z,0
2023-02-12T18:18:07.661Z,0
2023-02-12T18:21:07.654Z,0
2023-02-12T18:24:07.718Z,0
2023-02-12T18:27:07.786Z,0
2023-02-12T18:30:07.854Z,0
2023-02-12T18:33:07.726Z,0
2023-02-12T18:36:07.727Z,0
2023-02-12T18:39:07.712Z,0
2023-02-12T18:42:07.676Z,0
2023-02-12T18:45:07.745Z,0
2023-02-12T18:48:07.634Z,0
2023-02-12T18:51:07.765Z,0
2023-02-12T18:54:09.833Z,0
2023-02-12T18:57:07.816Z,0
2023-02-12T19:00:07.794Z,0
2023-02-12T19:03:07.691Z,0
2023-02-12T19:06:07.640Z,0
2023-02-12T19:09:07.695Z,0
2023-02-12T19:12:07.668Z,0
2023-02-12T19:15:07.665Z,0
2023-02-12T19:18:07.624Z,0
2023-02-12T19:21:07.605Z,0
2023-02-12T19:24:07.619Z,0
2023-02-12T19:27:07.826Z,0
2023-02-12T19:30:07.753Z,0
2023-02-12T19:33:07.594Z,0
2023-02-12T19:36:07.570Z,0
2023-02-12T19:39:07.758Z,0
2023-02-12T19:42:07.765Z,0
2023-02-12T19:45:07.692Z,0
2023-02-12T19:48:07.631Z,0
2023-02-12T19:51:07.738Z,0
2023-02-12T19:54:07.560Z,0
2023-02-12T19:57:07.562Z,0
2023-02-12T20:00:07.593Z,0
2023-02-12T20:03:08.003Z,0
2023-02-12T20:06:07.651Z,0
2023-02-12T20:09:07.560Z,0
2023-02-12T20:12:07.658Z,0
2023-02-12T20:15:07.660Z,0
2023-02-12T20:18:07.641Z,0
2023-02-12T20:21:07.561Z,0
2023-02-12T20:24:07.637Z,0
2023-02-12T20:27:07.680Z,0
2023-02-12T20:30:07.785Z,0
2023-02-12T20:33:07.610Z,0
2023-02-12T20:36:07.721Z,0
2023-02-12T20:39:07.722Z,0
2023-02-12T20:42:07.607Z,0
2023-02-12T20:45:07.681Z,0
2023-02-12T20:48:07.610Z,0
2023-02-12T20:51:07.627Z,0
2023-02-12T20:54:07.621Z,0
2023-02-12T20:57:07.689Z,0
2023-02-12T21:00:07.734Z,0
2023-02-12T21:03:07.810Z,0
2023-02-12T21:06:07.694Z,0
2023-02-12T21:09:07.807Z,0
2023-02-12T21:12:07.814Z,0
2023-02-12T21:15:07.553Z,0
2023-02-12T21:18:07.575Z,0
2023-02-12T21:21:07.662Z,0
2023-02-12T21:24:07.696Z,0
2023-02-12T21:27:08.329Z,0
2023-02-12T21:30:07.694Z,0
2023-02-12T21:33:07.625Z,0
2023-02-12T21:36:07.604Z,0
2023-02-12T21:39:07.630Z,0
2023-02-12T21:42:07.814Z,0
2023-02-12T21:45:07.856Z,0
2023-02-12T21:48:07.621Z,0
2023-02-12T21:51:07.709Z,0
2023-02-12T21:54:07.634Z,0
2023-02-12T21:57:07.612Z,0
2023-02-12T22:00:07.759Z,0
2023-02-12T22:03:07.698Z,0
2023-02-12T22:06:07.670Z,0
2023-02-12T22:09:07.657Z,0
2023-02-12T22:12:07.642Z,0
2023-02-12T22:15:07.684Z,0
2023-02-12T22:18:07.593Z,0
2023-02-12T22:21:08.764Z,0
2023-02-12T22:24:07.572Z,0
2023-02-12T22:27:07.641Z,0
2023-02-12T22:30:07.711Z,0
2023-02-12T22:33:07.619Z,0
2023-02-12T22:36:09.718Z,0
2023-02-12T22:39:07.627Z,0
2023-02-12T22:42:07.617Z,0
2023-02-12T22:45:07.573Z,0
2023-02-12T22:48:07.652Z,0
2023-02-12T22:51:07.654Z,0
2023-02-12T22:54:07.572Z,0
2023-02-12T22:57:07.587Z,0
2023-02-12T23:00:08.661Z,0
2023-02-12T23:03:07.838Z,0
2023-02-12T23:06:07.512Z,0
2023-02-12T23:09:07.674Z,0
2023-02-12T23:12:07.531Z,0
2023-02-12T23:15:07.609Z,0
2023-02-12T23:18:07.644Z,0
2023-02-12T23:21:08.209Z,0
2023-02-12T23:24:07.572Z,0
2023-02-12T23:27:07.566Z,0
2023-02-12T23:30:07.689Z,0
2023-02-12T23:33:07.573Z,0
2023-02-12T23:36:07.677Z,0
2023-02-12T23:39:07.608Z,0
2023-02-12T23:42:07.657Z,0
2023-02-12T23:45:07.652Z,0
2023-02-12T23:48:07.607Z,0
2023-02-12T23:51:07.652Z,0
2023-02-12T23:54:07.694Z,0
2023-02-12T23:57:07.597Z,0
